Time;durP1;ratioP1;P1;durP2;ratioP2;P2;SDS_P1;SDS_P2;PMS_P1;PMS_P2;Temp;Humidity;BMP_temperature;BMP_pressure;BME280_temperature;BME280_humidity;BME280_pressure;Samples;Min_cycle;Max_cycle;Signal;HPM_P1;HPM_P2
2023/03/20 00:02:25;;;;;;;32.75;16.50;;;;;;;11.21;100.00;101177.47;4891122;29;20052;-84
2023/03/20 00:04:53;;;;;;;29.92;17.58;;;;;;;11.31;100.00;101178.59;4870016;29;20053;-84
2023/03/20 00:07:20;;;;;;;27.90;16.73;;;;;;;11.26;100.00;101182.97;4878025;29;20056;-84
2023/03/20 00:09:48;;;;;;;30.35;17.92;;;;;;;11.25;100.00;101175.81;4890525;29;20493;-84
2023/03/20 00:12:23;;;;;;;30.05;17.55;;;;;;;11.18;100.00;101169.78;4879023;29;20041;-83
2023/03/20 00:14:51;;;;;;;34.40;18.45;;;;;;;11.12;100.00;101170.88;4902274;29;20048;-84
2023/03/20 00:17:20;;;;;;;31.30;17.80;;;;;;;10.99;100.00;101173.00;4894211;29;20049;-84
2023/03/20 00:19:48;;;;;;;29.50;18.05;;;;;;;11.05;100.00;101173.03;4889723;29;20060;-84
2023/03/20 00:22:15;;;;;;;31.38;18.00;;;;;;;10.84;100.00;101186.63;4883370;29;20512;-84
2023/03/20 00:24:43;;;;;;;31.95;18.05;;;;;;;10.84;96.86;101168.28;4888597;29;20045;-84
2023/03/20 00:27:14;;;;;;;34.17;18.42;;;;;;;10.89;95.96;101178.44;4864521;29;20078;-84
2023/03/20 00:29:43;;;;;;;31.02;17.95;;;;;;;10.79;96.34;101175.69;4864410;29;20045;-84
2023/03/20 00:32:12;;;;;;;33.08;17.70;;;;;;;10.66;95.92;101175.03;4881154;29;20060;-84
2023/03/20 00:34:40;;;;;;;29.58;16.42;;;;;;;10.62;96.10;101169.28;4881026;29;20041;-84
2023/03/20 00:37:10;;;;;;;33.05;17.60;;;;;;;10.48;97.25;101174.41;4890351;29;20053;-84
2023/03/20 00:39:39;;;;;;;28.90;15.95;;;;;;;10.27;97.81;101175.34;4881097;29;20044;-84
2023/03/20 00:42:19;;;;;;;31.88;16.83;;;;;;;10.28;97.83;101179.72;4895423;29;20495;-84
2023/03/20 00:44:54;;;;;;;30.52;17.55;;;;;;;10.27;97.08;101178.88;4896484;29;20056;-84
2023/03/20 00:47:27;;;;;;;30.02;17.15;;;;;;;10.25;97.41;101169.28;4889955;29;20439;-84
2023/03/20 00:49:55;;;;;;;30.80;17.58;;;;;;;10.19;97.61;101176.66;4900617;29;20059;-84
2023/03/20 00:52:23;;;;;;;33.70;18.00;;;;;;;10.26;96.06;101170.97;4880244;29;20493;-84
2023/03/20 00:54:51;;;;;;;34.63;18.08;;;;;;;10.17;95.15;101167.91;4863924;29;20386;-84
2023/03/20 00:57:27;;;;;;;34.95;19.45;;;;;;;10.16;94.54;101169.78;4879845;29;20061;-84
2023/03/20 01:00:07;;;;;;;36.20;17.85;;;;;;;10.21;94.56;101169.84;4880358;29;20068;-84
2023/03/20 01:02:35;;;;;;;32.60;17.23;;;;;;;10.24;94.61;101167.66;4880687;29;20139;-84
2023/03/20 01:05:04;;;;;;;31.63;17.17;;;;;;;10.16;93.79;101172.53;4886158;29;20072;-84
2023/03/20 01:07:32;;;;;;;34.00;19.23;;;;;;;10.17;93.53;101168.69;4898598;29;20056;-84
2023/03/20 01:10:03;;;;;;;31.98;18.17;;;;;;;10.33;92.22;101171.56;4898479;29;20053;-84
2023/03/20 01:12:32;;;;;;;32.55;17.63;;;;;;;10.39;91.36;101170.50;4890092;29;20064;-84
2023/03/20 01:15:00;;;;;;;32.75;17.95;;;;;;;10.42;91.57;101167.22;4880157;29;20083;-84
2023/03/20 01:17:28;;;;;;;32.03;17.38;;;;;;;10.37;91.87;101167.22;4863877;29;20064;-84
2023/03/20 01:19:56;;;;;;;31.88;17.73;;;;;;;10.29;91.79;101174.00;4880047;29;20049;-84
2023/03/20 01:22:24;;;;;;;38.08;19.02;;;;;;;10.31;92.29;101160.88;4862369;29;20049;-84
2023/03/20 01:24:52;;;;;;;30.33;17.42;;;;;;;10.22;92.19;101157.00;4881132;29;20041;-84
2023/03/20 01:27:20;;;;;;;31.70;17.55;;;;;;;10.24;92.30;101162.19;4880455;29;20069;-84
2023/03/20 01:29:48;;;;;;;31.48;17.17;;;;;;;10.37;92.27;101161.75;4894280;29;20056;-84
2023/03/20 01:32:18;;;;;;;29.67;17.52;;;;;;;10.40;92.53;101163.94;4876366;29;20056;-84
2023/03/20 01:34:51;;;;;;;31.02;18.40;;;;;;;10.33;94.04;101166.09;4864223;29;20056;-84
2023/03/20 01:37:26;;;;;;;32.75;18.65;;;;;;;10.53;93.04;101159.09;4864408;29;20068;-84
2023/03/20 01:39:56;;;;;;;31.58;17.48;;;;;;;10.47;92.91;101147.31;4880162;29;20048;-83
2023/03/20 01:42:25;;;;;;;32.47;17.25;;;;;;;10.61;91.83;101151.22;4880870;29;20057;-84
2023/03/20 01:44:53;;;;;;;37.50;17.80;;;;;;;10.64;91.32;101158.06;4869140;29;20045;-83
2023/03/20 01:47:24;;;;;;;35.83;18.70;;;;;;;10.65;90.50;101151.50;4895683;29;20495;-83
2023/03/20 01:50:18;;;;;;;35.70;18.83;;;;;;;10.56;91.13;101153.91;4879846;29;20503;-84
2023/03/20 01:52:49;;;;;;;34.25;19.00;;;;;;;10.71;90.99;101144.97;4872899;29;20396;-84
2023/03/20 01:55:19;;;;;;;31.10;17.00;;;;;;;10.69;89.74;101144.41;4870345;29;20403;-84
2023/03/20 01:57:54;;;;;;;32.58;17.10;;;;;;;10.79;89.33;101137.34;4869624;29;20053;-84
2023/03/20 02:00:22;;;;;;;33.83;19.20;;;;;;;10.85;89.24;101131.59;4872423;29;20047;-84
2023/03/20 02:02:50;;;;;;;31.83;17.50;;;;;;;10.78;89.77;101138.41;4866661;29;20049;-84
2023/03/20 02:05:58;;;;;;;29.20;17.08;;;;;;;10.95;89.54;101130.81;4891138;29;20056;-84
2023/03/20 02:08:39;;;;;;;31.80;17.58;;;;;;;10.88;88.95;101133.81;4863178;29;20072;-84
2023/03/20 02:11:07;;;;;;;30.38;17.08;;;;;;;10.93;88.57;101130.28;4881872;29;20045;-83
2023/03/20 02:13:36;;;;;;;30.85;17.73;;;;;;;10.85;89.04;101131.59;4889018;29;20065;-84
2023/03/20 02:16:11;;;;;;;34.30;18.02;;;;;;;10.68;90.42;101136.47;4871690;29;20122;-84
2023/03/20 02:19:01;;;;;;;33.25;17.70;;;;;;;10.71;90.04;101142.22;4866402;29;20412;-84
2023/03/20 02:22:08;;;;;;;26.40;16.23;;;;;;;10.70;90.56;101145.25;4879932;29;20063;-84
2023/03/20 02:25:14;;;;;;;32.28;18.42;;;;;;;10.55;90.66;101148.75;4837026;29;20146;-84
2023/03/20 02:28:32;;;;;;;33.45;17.55;;;;;;;10.34;92.26;101143.94;4857753;29;20045;-84
2023/03/20 02:31:14;;;;;;;33.40;17.25;;;;;;;10.30;92.38;101144.72;4858140;29;20428;-84
2023/03/20 02:33:43;;;;;;;28.73;16.40;;;;;;;10.48;91.14;101136.09;4875817;29;20064;-84
2023/03/20 02:36:45;;;;;;;31.27;16.90;;;;;;;10.53;90.46;101142.69;4878952;29;20412;-84
2023/03/20 02:39:34;;;;;;;28.20;16.73;;;;;;;10.37;91.21;101145.31;4847995;29;20056;-84
2023/03/20 02:42:18;;;;;;;31.98;17.17;;;;;;;10.40;91.54;101133.84;4867722;29;20496;-84
2023/03/20 02:45:03;;;;;;;30.75;17.98;;;;;;;10.42;91.15;101133.56;4863302;29;20063;-84
2023/03/20 02:47:47;;;;;;;29.95;16.48;;;;;;;10.26;93.36;101121.72;4864827;29;20053;-84
2023/03/20 02:50:35;;;;;;;31.08;16.23;;;;;;;10.17;94.44;101119.47;4885243;29;20060;-84
2023/03/20 02:53:16;;;;;;;31.10;16.85;;;;;;;10.20;94.41;101127.16;4879048;29;20048;-84
2023/03/20 02:55:53;;;;;;;32.03;17.55;;;;;;;10.22;92.54;101121.44;4896450;29;20412;-84
2023/03/20 02:58:36;;;;;;;31.42;17.92;;;;;;;10.26;92.89;101117.06;4870714;29;20052;-84
2023/03/20 03:01:22;;;;;;;29.33;16.48;;;;;;;10.24;92.40;101112.94;4866464;29;20049;-84
2023/03/20 03:04:20;;;;;;;33.45;17.70;;;;;;;10.21;92.94;101117.03;4862113;29;20049;-84
2023/03/20 03:06:54;;;;;;;31.40;17.15;;;;;;;10.23;92.61;101120.34;4877363;29;20064;-84
2023/03/20 03:09:32;;;;;;;33.10;17.88;;;;;;;10.26;92.30;101105.31;4887623;29;20049;-84
2023/03/20 03:12:08;;;;;;;36.08;18.33;;;;;;;10.17;92.93;101103.06;4879093;29;20052;-85
2023/03/20 03:14:35;;;;;;;31.80;17.75;;;;;;;10.04;94.98;101109.84;4878763;29;20068;-84
2023/03/20 03:17:08;;;;;;;33.88;18.38;;;;;;;9.81;95.48;101105.56;4880178;29;20519;-84
2023/03/20 03:19:40;;;;;;;28.23;17.30;;;;;;;9.88;94.98;101099.88;4885098;29;20407;-84
2023/03/20 03:22:09;;;;;;;32.63;17.85;;;;;;;9.85;94.95;101101.22;4861348;29;20049;-83
2023/03/20 03:24:42;;;;;;;29.98;17.00;;;;;;;9.69;95.91;101103.00;4865129;29;20071;-84
2023/03/20 03:27:33;;;;;;;31.08;18.10;;;;;;;9.75;95.45;101104.69;4896137;29;20048;-84
2023/03/20 03:30:11;;;;;;;32.63;16.67;;;;;;;9.79;95.18;101102.28;4878190;29;20064;-84
2023/03/20 03:33:10;;;;;;;34.00;17.80;;;;;;;9.71;95.60;101110.94;4863224;29;20060;-84
2023/03/20 03:35:40;;;;;;;29.90;16.70;;;;;;;9.54;95.77;101111.91;4873942;29;20060;-84
2023/03/20 03:38:20;;;;;;;31.48;17.75;;;;;;;9.60;97.21;101110.88;4867179;29;20059;-84
2023/03/20 03:41:18;;;;;;;31.40;18.85;;;;;;;9.56;97.11;101120.66;4896282;29;20045;-83
2023/03/20 03:44:02;;;;;;;33.67;18.65;;;;;;;9.63;96.17;101115.00;4875742;29;20072;-83
2023/03/20 03:46:38;;;;;;;38.47;19.77;;;;;;;9.57;95.45;101122.31;4861406;29;20049;-83
2023/03/20 03:49:09;;;;;;;31.75;17.67;;;;;;;9.28;96.11;101119.84;4882488;29;20053;-83
2023/03/20 03:51:41;;;;;;;29.02;18.27;;;;;;;9.29;95.80;101121.50;4877467;29;20060;-84
2023/03/20 03:54:17;;;;;;;33.30;17.77;;;;;;;9.39;95.88;101124.31;4875523;29;20044;-83
2023/03/20 03:56:58;;;;;;;32.92;17.75;;;;;;;9.66;94.39;101115.28;4866785;29;20061;-83
2023/03/20 03:59:45;;;;;;;27.48;17.05;;;;;;;9.81;92.13;101120.06;4886539;29;20069;-83
2023/03/20 04:02:15;;;;;;;32.00;17.88;;;;;;;9.91;91.26;101116.56;4873931;29;20048;-83
2023/03/20 04:04:47;;;;;;;30.83;16.92;;;;;;;9.84;91.86;101106.94;4894870;29;20067;-84
2023/03/20 04:07:16;;;;;;;29.88;18.40;;;;;;;9.94;91.72;101105.09;4884597;29;20057;-83
2023/03/20 04:09:44;;;;;;;28.33;15.55;;;;;;;9.89;92.02;101115.19;4882624;29;20064;-84
2023/03/20 04:12:28;;;;;;;30.48;16.17;;;;;;;9.92;91.31;101106.47;4881562;29;20060;-84
2023/03/20 04:14:56;;;;;;;28.80;16.98;;;;;;;9.92;92.37;101099.06;4882937;29;20515;-83
2023/03/20 04:17:26;;;;;;;30.48;17.33;;;;;;;9.84;92.92;101105.03;4868854;29;20052;-83
2023/03/20 04:19:54;;;;;;;35.15;19.17;;;;;;;9.88;92.37;101110.81;4850460;29;20049;-83
2023/03/20 04:22:22;;;;;;;32.88;19.42;;;;;;;9.94;91.84;101099.63;4881240;29;20408;-83
2023/03/20 04:24:51;;;;;;;33.55;17.88;;;;;;;9.83;92.20;101097.94;4898510;29;20492;-84
2023/03/20 04:27:19;;;;;;;31.88;18.65;;;;;;;9.71;92.93;101100.00;4886260;29;20061;-83
2023/03/20 04:29:48;;;;;;;33.83;18.83;;;;;;;9.68;93.56;101102.19;4880139;29;20053;-83
2023/03/20 04:32:36;;;;;;;36.40;18.65;;;;;;;9.61;93.89;101106.22;4892311;29;20052;-83
2023/03/20 04:35:17;;;;;;;36.38;18.58;;;;;;;9.65;93.46;101108.19;4876751;29;20071;-83
2023/03/20 04:37:49;;;;;;;36.15;18.98;;;;;;;9.63;93.08;101099.41;4863221;29;20045;-83
2023/03/20 04:40:18;;;;;;;32.83;19.13;;;;;;;9.62;93.33;101102.38;4863724;29;20057;-84
2023/03/20 04:42:46;;;;;;;32.60;18.75;;;;;;;9.53;93.14;101100.16;4863487;29;20377;-83
2023/03/20 04:45:14;;;;;;;31.38;17.55;;;;;;;9.48;92.80;101104.75;4892332;29;20048;-84
2023/03/20 04:47:43;;;;;;;33.55;18.60;;;;;;;9.42;93.22;101103.88;4881425;29;20059;-84
2023/03/20 04:50:12;;;;;;;35.17;19.75;;;;;;;9.38;93.74;101105.47;4875140;29;20048;-84
2023/03/20 04:52:40;;;;;;;33.15;18.02;;;;;;;9.48;92.89;101102.03;4901041;29;20048;-84
2023/03/20 04:55:09;;;;;;;33.15;18.70;;;;;;;9.41;93.58;101116.72;4877691;29;20055;-83
2023/03/20 04:57:37;;;;;;;34.95;19.88;;;;;;;9.33;94.08;101114.44;4883055;29;20409;-83
2023/03/20 05:00:06;;;;;;;34.63;19.58;;;;;;;9.20;95.65;101101.22;4881792;29;20111;-84
2023/03/20 05:02:34;;;;;;;31.92;18.50;;;;;;;9.18;95.14;101111.56;4882302;29;20049;-84
2023/03/20 05:05:02;;;;;;;36.20;18.80;;;;;;;9.12;95.60;101108.78;4886273;29;20057;-83
2023/03/20 05:07:31;;;;;;;32.13;18.60;;;;;;;9.17;94.80;101110.72;4862154;29;20533;-83
2023/03/20 05:10:11;;;;;;;32.58;19.73;;;;;;;9.09;95.77;101109.28;4863445;29;20061;-84
2023/03/20 05:12:49;;;;;;;32.50;18.70;;;;;;;9.04;96.02;101113.88;4863784;29;20504;-84
2023/03/20 05:15:36;;;;;;;32.33;19.20;;;;;;;9.04;96.43;101114.69;4879495;29;20627;-84
2023/03/20 05:18:23;;;;;;;37.95;19.83;;;;;;;8.94;97.17;101114.59;4880382;29;20469;-83
2023/03/20 05:21:07;;;;;;;34.28;20.45;;;;;;;8.93;97.40;101107.47;4876638;29;20056;-83
2023/03/20 05:23:53;;;;;;;32.90;18.70;;;;;;;9.32;97.42;101112.78;4881506;29;20045;-88
2023/03/20 05:26:36;;;;;;;40.25;20.45;;;;;;;9.81;92.75;101113.75;4849862;29;20067;-89
2023/03/20 05:30:24;;;;;;;39.38;20.35;;;;;;;10.20;90.84;101118.97;4879406;29;20053;-89
2023/03/20 05:35:03;;;;;;;30.27;17.98;;;;;;;10.33;88.87;101117.66;4886445;29;20061;-89
2023/03/20 05:39:28;;;;;;;37.28;20.92;;;;;;;10.56;86.87;101123.00;4873494;29;20071;-88
2023/03/20 05:43:57;;;;;;;35.10;18.60;;;;;;;10.34;86.67;101123.94;4882993;29;20040;-89
2023/03/20 05:48:10;;;;;;;29.20;17.60;;;;;;;10.34;85.78;101126.69;4857402;29;20055;-89
2023/03/20 05:56:14;;;;;;;35.17;18.63;;;;;;;9.88;88.03;101141.69;4887816;29;20060;-89
2023/03/20 06:00:20;;;;;;;32.00;17.35;;;;;;;9.99;88.11;101139.88;4878234;29;20528;-88
2023/03/20 06:03:44;;;;;;;33.95;17.80;;;;;;;10.00;87.42;101151.63;4847376;29;20388;-91
2023/03/20 06:07:43;;;;;;;30.55;16.27;;;;;;;9.61;89.11;101164.44;4866751;29;20057;-86
2023/03/20 06:10:51;;;;;;;29.33;16.88;;;;;;;9.87;88.49;101163.84;4862368;29;20503;-84
2023/03/20 06:13:29;;;;;;;34.75;16.58;;;;;;;9.87;88.32;101172.03;4825316;29;20049;-86
2023/03/20 06:16:01;;;;;;;32.10;16.83;;;;;;;9.89;87.86;101173.44;4840623;29;20045;-84
2023/03/20 06:18:29;;;;;;;28.95;17.05;;;;;;;9.82;88.53;101183.72;4860484;29;20408;-85
2023/03/20 06:20:58;;;;;;;30.02;16.17;;;;;;;9.98;88.45;101197.53;4845520;29;20064;-85
2023/03/20 06:23:28;;;;;;;28.27;17.63;;;;;;;9.99;87.94;101193.72;4850044;29;20053;-85
2023/03/20 06:26:01;;;;;;;31.23;17.85;;;;;;;10.08;88.68;101197.63;4842588;29;20057;-85
2023/03/20 06:28:37;;;;;;;32.55;18.30;;;;;;;10.15;87.93;101197.41;4855843;29;20048;-85
2023/03/20 06:31:08;;;;;;;29.42;16.98;;;;;;;10.39;86.59;101197.84;4883369;29;20060;-84
2023/03/20 06:33:37;;;;;;;33.08;17.52;;;;;;;10.33;88.10;101188.78;4870546;29;20119;-85
2023/03/20 06:36:05;;;;;;;32.03;17.42;;;;;;;10.55;87.47;101207.00;4849938;29;20495;-85
2023/03/20 06:38:33;;;;;;;33.65;18.35;;;;;;;10.89;84.99;101192.13;4853137;29;20484;-86
2023/03/20 06:41:07;;;;;;;33.78;19.45;;;;;;;11.08;83.70;101191.66;4850623;29;20056;-85
2023/03/20 06:43:36;;;;;;;34.13;18.63;;;;;;;10.94;84.66;101192.16;4859113;29;20496;-80
2023/03/20 06:46:05;;;;;;;30.15;17.27;;;;;;;10.79;85.11;101201.13;4855509;29;20049;-80
2023/03/20 06:48:35;;;;;;;28.63;15.95;;;;;;;10.99;84.63;101208.63;4865205;29;20460;-79
2023/03/20 06:51:06;;;;;;;33.08;17.92;;;;;;;10.91;85.17;101197.34;4863758;29;20154;-79
2023/03/20 06:53:43;;;;;;;30.17;16.20;;;;;;;11.09;84.03;101201.53;4850858;29;20055;-79
2023/03/20 06:56:18;;;;;;;31.98;18.27;;;;;;;11.33;82.84;101203.81;4864893;29;20056;-79
2023/03/20 06:58:46;;;;;;;31.85;17.85;;;;;;;11.43;83.41;101209.31;4865122;29;20410;-79
2023/03/20 07:01:16;;;;;;;28.48;16.63;;;;;;;11.65;80.85;101214.56;4864151;29;20057;-79
2023/03/20 07:03:45;;;;;;;31.67;16.75;;;;;;;11.89;80.74;101211.31;4864571;29;20057;-79
2023/03/20 07:06:18;;;;;;;39.75;17.50;;;;;;;11.87;80.22;101208.00;4849853;29;20059;-79
2023/03/20 07:08:46;;;;;;;31.35;16.65;;;;;;;12.03;80.62;101211.56;4864673;29;20052;-79
2023/03/20 07:11:15;;;;;;;30.45;16.65;;;;;;;12.20;79.47;101205.84;4849347;29;20048;-79
2023/03/20 07:13:44;;;;;;;30.23;16.65;;;;;;;12.36;78.67;101214.06;4864759;29;20051;-79
2023/03/20 07:16:27;;;;;;;38.22;19.73;;;;;;;12.27;79.68;101215.72;4864725;29;20061;-79
2023/03/20 07:18:55;;;;;;;35.92;17.95;;;;;;;12.05;80.08;101212.16;4864613;29;20570;-79
2023/03/20 07:21:25;;;;;;;34.67;18.75;;;;;;;11.97;80.78;101209.91;4864601;29;20056;-78
2023/03/20 07:23:53;;;;;;;36.70;17.77;;;;;;;11.95;81.50;101212.97;4849397;29;20044;-79
2023/03/20 07:26:21;;;;;;;33.33;18.08;;;;;;;11.92;82.11;101204.44;4864665;29;20045;-79
2023/03/20 07:28:50;;;;;;;33.88;18.08;;;;;;;12.00;80.93;101217.63;4864922;29;20055;-79
2023/03/20 07:31:27;;;;;;;27.52;16.95;;;;;;;11.90;81.17;101214.88;4852075;29;20048;-78
2023/03/20 07:34:06;;;;;;;31.27;17.17;;;;;;;12.05;80.58;101216.81;4868388;29;20057;-79
2023/03/20 07:36:34;;;;;;;28.23;17.63;;;;;;;11.79;83.34;101214.84;4868379;29;20504;-79
2023/03/20 07:39:03;;;;;;;32.50;18.45;;;;;;;12.09;81.41;101215.19;4853131;29;20052;-78
2023/03/20 07:41:32;;;;;;;33.33;19.20;;;;;;;12.20;81.78;101216.00;4868352;29;20437;-79
2023/03/20 07:44:09;;;;;;;33.78;18.48;;;;;;;12.36;79.57;101214.88;4867815;29;20064;-79
2023/03/20 07:46:50;;;;;;;32.22;19.35;;;;;;;12.41;80.40;101213.25;4868070;29;20056;-79
2023/03/20 07:49:21;;;;;;;31.45;16.95;;;;;;;12.32;80.79;101213.78;4868055;29;20055;-79
2023/03/20 07:51:50;;;;;;;31.02;19.73;;;;;;;12.51;81.27;101210.47;4868024;29;20060;-79
2023/03/20 07:54:18;;;;;;;32.38;19.52;;;;;;;12.94;82.00;101223.00;4867491;29;20048;-79
2023/03/20 07:56:46;;;;;;;31.85;18.65;;;;;;;13.16;78.18;101219.88;4867579;29;20455;-79
2023/03/20 07:59:15;;;;;;;31.33;18.27;;;;;;;13.43;79.13;101233.22;4852912;29;20049;-79
2023/03/20 08:01:46;;;;;;;34.42;19.13;;;;;;;13.52;78.56;101222.47;4867822;29;20056;-78
2023/03/20 08:04:18;;;;;;;32.33;17.50;;;;;;;13.60;80.03;101222.97;4852425;29;20416;-79
2023/03/20 08:06:46;;;;;;;33.35;18.85;;;;;;;13.88;77.18;101210.38;4852313;29;20048;-78
2023/03/20 08:09:15;;;;;;;31.58;17.95;;;;;;;14.45;75.11;101217.34;4852056;29;20360;-79
2023/03/20 08:11:44;;;;;;;32.85;18.58;;;;;;;14.96;74.44;101218.72;4867342;29;20048;-79
2023/03/20 08:14:13;;;;;;;34.85;18.52;;;;;;;15.17;73.66;101207.47;4852325;29;20059;-79
2023/03/20 08:16:41;;;;;;;32.15;18.33;;;;;;;15.09;72.99;101221.88;4852198;29;20057;-79
2023/03/20 08:19:09;;;;;;;32.42;18.27;;;;;;;14.83;75.82;101227.72;4852313;29;20044;-78
2023/03/20 08:21:37;;;;;;;29.45;17.55;;;;;;;15.32;73.17;101234.81;4851890;29;20408;-78
2023/03/20 08:24:07;;;;;;;32.22;18.13;;;;;;;15.58;70.94;101226.19;4868049;29;20052;-79
2023/03/20 08:26:35;;;;;;;29.73;17.55;;;;;;;15.78;69.87;101226.22;4852739;29;20052;-79
2023/03/20 08:29:04;;;;;;;34.33;18.75;;;;;;;15.63;70.64;101224.50;4852398;29;20045;-79
2023/03/20 08:31:32;;;;;;;32.92;18.30;;;;;;;15.56;71.38;101228.41;4867004;29;20067;-79
2023/03/20 08:34:00;;;;;;;33.22;18.38;;;;;;;16.11;70.09;101224.31;4866879;29;20084;-79
2023/03/20 08:36:29;;;;;;;30.45;18.05;;;;;;;16.17;69.45;101222.28;4851957;29;20052;-79
2023/03/20 08:38:57;;;;;;;35.58;18.75;;;;;;;16.09;69.61;101226.53;4852046;29;20076;-79
2023/03/20 08:41:25;;;;;;;30.70;17.20;;;;;;;16.22;67.93;101221.34;4852249;29;20484;-78
2023/03/20 08:43:53;;;;;;;31.00;17.63;;;;;;;16.14;67.26;101224.81;4852545;29;20052;-79
2023/03/20 08:46:21;;;;;;;31.48;18.33;;;;;;;15.88;71.04;101216.94;4851816;29;20048;-78
2023/03/20 08:48:50;;;;;;;33.58;17.58;;;;;;;16.01;68.17;101229.16;4866673;29;20064;-78
2023/03/20 08:51:18;;;;;;;28.60;16.25;;;;;;;16.19;66.59;101224.75;4851714;29;20467;-78
2023/03/20 08:53:46;;;;;;;32.35;18.52;;;;;;;16.46;65.81;101228.66;4851645;29;20065;-79
2023/03/20 08:56:14;;;;;;;32.33;18.02;;;;;;;16.65;65.77;101226.69;4851624;29;20056;-78
2023/03/20 08:58:42;;;;;;;29.48;16.35;;;;;;;16.62;65.39;101227.28;4851847;29;20396;-79
2023/03/20 09:01:11;;;;;;;32.35;18.23;;;;;;;16.38;65.57;101222.72;4866742;29;20063;-79
2023/03/20 09:03:39;;;;;;;32.53;17.08;;;;;;;16.65;65.03;101221.16;4866971;29;20052;-79
2023/03/20 09:06:08;;;;;;;30.77;17.42;;;;;;;16.96;64.01;101228.00;4852162;29;20056;-79
2023/03/20 09:08:37;;;;;;;26.98;15.80;;;;;;;17.19;62.38;101228.94;4836897;29;20499;-78
2023/03/20 09:11:06;;;;;;;33.22;17.65;;;;;;;17.18;61.81;101229.25;4867251;29;20067;-78
2023/03/20 09:13:35;;;;;;;28.13;17.00;;;;;;;17.51;60.42;101225.50;4867454;29;20060;-78
2023/03/20 09:16:03;;;;;;;29.05;16.30;;;;;;;17.52;58.55;101221.59;4851415;29;20520;-78
2023/03/20 09:18:32;;;;;;;27.58;16.08;;;;;;;17.29;59.78;101224.31;4866434;29;20063;-78
2023/03/20 09:21:00;;;;;;;29.75;17.23;;;;;;;16.77;61.74;101228.13;4850837;29;20052;-79
2023/03/20 09:23:28;;;;;;;31.80;16.77;;;;;;;17.28;61.33;101229.03;4851411;29;20044;-79
2023/03/20 09:25:57;;;;;;;32.05;17.27;;;;;;;17.49;61.93;101225.00;4865933;29;20071;-78
2023/03/20 09:28:26;;;;;;;31.73;17.63;;;;;;;17.55;60.91;101224.56;4850860;29;20065;-78
2023/03/20 09:30:56;;;;;;;28.30;16.25;;;;;;;18.11;58.73;101229.09;4865874;29;20056;-78
2023/03/20 09:33:25;;;;;;;31.48;17.05;;;;;;;18.22;54.98;101226.88;4866222;29;20130;-79
2023/03/20 09:35:53;;;;;;;28.55;16.65;;;;;;;17.59;58.82;101221.97;4866216;29;20044;-79
2023/03/20 09:38:21;;;;;;;29.13;17.17;;;;;;;17.54;56.65;101222.13;4850455;29;20408;-78
2023/03/20 09:40:51;;;;;;;32.45;16.90;;;;;;;17.62;56.03;101221.38;4865577;29;20055;-78
2023/03/20 09:43:42;;;;;;;27.55;16.48;;;;;;;17.29;56.82;101227.06;4865999;29;20049;-79
2023/03/20 09:46:22;;;;;;;30.98;17.13;;;;;;;17.78;57.25;101221.81;4865893;29;20068;-79
2023/03/20 09:49:16;;;;;;;29.95;17.45;;;;;;;17.63;57.07;101219.41;4850444;29;20061;-79
2023/03/20 09:51:54;;;;;;;32.47;17.00;;;;;;;17.76;56.03;101217.72;4850858;29;20076;-79
2023/03/20 09:54:30;;;;;;;34.03;17.48;;;;;;;17.83;55.91;101221.69;4865647;29;20048;-79
2023/03/20 09:57:28;;;;;;;30.15;18.33;;;;;;;17.92;54.09;101223.69;4852755;29;20494;-78
2023/03/20 10:00:01;;;;;;;28.55;17.05;;;;;;;18.18;55.81;101217.56;4865758;29;20052;-79
2023/03/20 10:03:02;;;;;;;29.42;17.35;;;;;;;18.17;53.03;101211.22;4866865;29;20052;-79
2023/03/20 10:05:55;;;;;;;32.40;16.80;;;;;;;18.18;53.87;101215.59;4850629;29;20052;-78
2023/03/20 10:08:28;;;;;;;30.13;16.92;;;;;;;17.57;55.47;101221.47;4865220;29;20049;-78
2023/03/20 10:11:06;;;;;;;28.95;17.48;;;;;;;17.63;54.26;101216.63;4849734;29;20053;-79
2023/03/20 10:13:51;;;;;;;27.27;16.92;;;;;;;18.32;52.98;101211.97;4850064;29;20062;-79
2023/03/20 10:16:45;;;;;;;32.30;18.02;;;;;;;17.89;54.24;101210.50;4849908;29;20507;-79
2023/03/20 10:19:38;;;;;;;28.08;16.80;;;;;;;18.34;52.92;101218.00;4850547;29;20049;-79
2023/03/20 10:22:26;;;;;;;32.47;18.08;;;;;;;18.63;52.31;101211.91;4847997;29;20060;-79
2023/03/20 10:25:07;;;;;;;30.85;17.33;;;;;;;18.48;51.71;101207.63;4865498;29;20053;-79
2023/03/20 10:27:45;;;;;;;30.58;17.30;;;;;;;17.87;52.31;101213.59;4865273;29;20060;-79
2023/03/20 10:30:23;;;;;;;31.70;18.02;;;;;;;18.51;50.57;101209.75;4865063;29;20426;-79
2023/03/20 10:33:23;;;;;;;29.35;17.50;;;;;;;18.64;49.69;101207.22;4865304;29;20064;-79
2023/03/20 10:36:07;;;;;;;33.05;17.23;;;;;;;18.61;50.53;101205.06;4846684;29;20079;-79
2023/03/20 10:38:52;;;;;;;27.20;17.00;;;;;;;18.65;52.43;101201.34;4847216;29;20060;-79
2023/03/20 10:41:25;;;;;;;28.30;17.58;;;;;;;18.59;53.93;101199.84;4849543;29;20068;-79
2023/03/20 10:43:56;;;;;;;33.97;17.52;;;;;;;19.09;51.05;101197.09;4849883;29;20060;-79
2023/03/20 10:46:29;;;;;;;28.55;17.48;;;;;;;19.67;47.97;101194.19;4865240;29;20060;-79
2023/03/20 10:49:02;;;;;;;32.65;18.23;;;;;;;19.87;47.52;101196.31;4849908;29;20068;-80
2023/03/20 10:51:47;;;;;;;29.27;17.10;;;;;;;19.70;46.81;101182.44;4865290;29;20079;-79
2023/03/20 10:54:29;;;;;;;29.58;17.35;;;;;;;20.22;46.42;101177.97;4849738;29;20055;-79
2023/03/20 10:57:00;;;;;;;30.38;17.77;;;;;;;20.31;47.57;101178.75;4864890;29;20079;-80
2023/03/20 10:59:37;;;;;;;29.17;17.30;;;;;;;20.81;43.35;101173.63;4849686;29;20048;-80
2023/03/20 11:02:12;;;;;;;28.02;16.67;;;;;;;21.15;43.24;101173.75;4864926;29;20063;-80
2023/03/20 11:04:41;;;;;;;26.40;16.50;;;;;;;20.89;45.32;101171.97;4849379;29;20055;-80
2023/03/20 11:07:31;;;;;;;28.02;16.90;;;;;;;19.99;44.58;101170.66;4864563;29;20053;-80
2023/03/20 11:10:12;;;;;;;32.10;18.27;;;;;;;19.78;46.39;101166.91;4865142;29;20472;-80
2023/03/20 11:12:46;;;;;;;28.27;17.08;;;;;;;20.29;45.43;101169.94;4849449;29;20079;-80
2023/03/20 11:15:18;;;;;;;28.40;16.75;;;;;;;19.98;43.13;101157.09;4849665;29;20053;-80
2023/03/20 11:17:55;;;;;;;31.30;18.33;;;;;;;19.57;46.18;101165.66;4849369;29;20091;-80
2023/03/20 11:20:34;;;;;;;30.70;17.38;;;;;;;20.12;43.82;101168.84;4864571;29;20056;-79
2023/03/20 11:23:05;;;;;;;26.55;15.50;;;;;;;19.66;45.31;101162.88;4864825;29;20059;-78
2023/03/20 11:25:38;;;;;;;29.10;17.27;;;;;;;20.18;45.24;101152.78;4864700;29;20381;-78
2023/03/20 11:28:34;;;;;;;32.65;17.33;;;;;;;20.66;47.08;101141.63;4849907;29;20063;-78
2023/03/20 11:31:12;;;;;;;28.90;18.05;;;;;;;20.39;44.26;101149.31;4849383;29;20052;-78
2023/03/20 11:33:49;;;;;;;25.92;15.98;;;;;;;20.72;42.24;101145.84;4865123;29;20488;-78
2023/03/20 11:36:24;;;;;;;29.77;17.33;;;;;;;21.00;43.53;101162.09;4849707;29;20064;-78
2023/03/20 11:39:13;;;;;;;26.60;16.75;;;;;;;20.63;44.73;101147.88;4864311;29;20056;-79
2023/03/20 11:41:44;;;;;;;30.52;18.05;;;;;;;20.67;43.94;101138.53;4849322;29;20052;-77
2023/03/20 11:44:23;;;;;;;30.52;17.38;;;;;;;21.21;40.99;101147.38;4849101;29;20063;-77
2023/03/20 11:46:56;;;;;;;27.95;17.23;;;;;;;21.42;41.75;101139.03;4849447;29;20060;-77
2023/03/20 11:49:28;;;;;;;29.90;17.52;;;;;;;21.20;41.35;101138.22;4849242;29;20059;-77
2023/03/20 11:52:10;;;;;;;28.92;17.10;;;;;;;21.33;40.18;101135.50;4864449;29;20057;-78
2023/03/20 11:54:47;;;;;;;29.50;16.95;;;;;;;21.86;40.87;101130.25;4849016;29;20052;-78
2023/03/20 11:57:43;;;;;;;27.48;16.70;;;;;;;21.85;40.19;101127.84;4864607;29;20053;-78
2023/03/20 12:00:23;;;;;;;29.33;17.98;;;;;;;21.53;40.93;101127.44;4848675;29;20412;-79
2023/03/20 12:02:51;;;;;;;29.02;18.02;;;;;;;20.52;42.17;101114.06;4864022;29;20048;-79
2023/03/20 12:05:38;;;;;;;27.45;17.30;;;;;;;19.87;44.24;101106.63;4848695;29;20056;-80